This is the latest recevied weather packets stored in our database for station/object AD8BV. If no packets are shown the sender has not sent any weather packets the latest 10 day(s).
| Time | Temp. | Humidity | Pressure | Rain* | Wind** | Luminosity | Snow |
|---|---|---|---|---|---|---|---|
| 1777412499 | 16.11° C | 70% | 1013.5 hPa | 0 mm | - | 177 W/m² | - |
| 1777412196 | 15.56° C | 72% | 1013.4 hPa | 0 mm | - | 320 W/m² | - |
| 1777411893 | 16.67° C | 68% | 1013.6 hPa | 0 mm | - | 192 W/m² | - |
| 1777411591 | 16.11° C | 70% | 1013.5 hPa | 0 mm | - | 235 W/m² | - |
| 1777411287 | 15.56° C | 71% | 1013.7 hPa | 0 mm | - | 218 W/m² | - |
| 1777410986 | 15° C | 72% | 1013.6 hPa | 0 mm | - | 181 W/m² | - |
| 1777410680 | 15.56° C | 70% | 1013.7 hPa | 0 mm | - | 123 W/m² | - |
| 1777410375 | 16.11° C | 68% | 1013.6 hPa | 0 mm | - | 458 W/m² | - |
| 1777410074 | 16.67° C | 69% | 1014 hPa | 0 mm | - | 377 W/m² | - |
| 1777409769 | 15.56° C | 71% | 1014 hPa | 0 mm | - | 453 W/m² | - |
| 1777409465 | 16.11° C | 71% | 1014 hPa | 0 mm | - | 138 W/m² | - |
| 1777409161 | 16.11° C | 71% | 1014.1 hPa | 0 mm | - | 504 W/m² | - |
| 1777408857 | 15.56° C | 72% | 1014.3 hPa | 0 mm | - | 232 W/m² | - |
| 1777408554 | 15.56° C | 72% | 1014.1 hPa | 0 mm | - | 245 W/m² | - |
| 1777408254 | 15.56° C | 73% | 1014.2 hPa | 0 mm | - | 223 W/m² | - |
| 1777407949 | 16.11° C | 73% | 1014.3 hPa | 0 mm | - | 367 W/m² | - |
| 1777407647 | 16.11° C | 72% | 1014.1 hPa | 0 mm | - | 291 W/m² | - |
| 1777407346 | 16.11° C | 73% | 1014.3 hPa | 0 mm | - | 253 W/m² | - |
| 1777407041 | 16.11° C | 72% | 1013.9 hPa | 0 mm | - | 286 W/m² | - |
| 1777406737 | 16.11° C | 73% | 1014 hPa | 0 mm | - | 229 W/m² | - |
| 1777406432 | 16.11° C | 72% | 1014.1 hPa | 0 mm | - | 237 W/m² | - |
| 1777406132 | 16.11° C | 72% | 1013.8 hPa | 0 mm | - | 229 W/m² | - |
| 1777405828 | 16.11° C | 72% | 1013.7 hPa | 0 mm | - | 823 W/m² | - |
| 1777405524 | 15.56° C | 71% | 1013.9 hPa | 0 mm | - | 218 W/m² | - |
| 1777405222 | 16.11° C | 72% | 1013.8 hPa | 0 mm | - | 263 W/m² | - |
* Rain latest hour (hover to see other rain measurements)
** Current wind speed in m/s (hover to see current wind gust speed)